Time;durP1;ratioP1;P1;durP2;ratioP2;P2;SDS_P1;SDS_P2;PMS_P1;PMS_P2;Temp;Humidity;BMP_temperature;BMP_pressure;BME280_temperature;BME280_humidity;BME280_pressure;Samples;Min_cycle;Max_cycle;Signal;HPM_P1;HPM_P2
2020/12/10 00:00:38;;;;;;;125.58;54.53;;;;;;;-0.38;73.21;96566.06;1798485;78;27574;-87
2020/12/10 00:03:05;;;;;;;125.18;52.70;;;;;;;-0.46;73.34;96566.03;1789371;78;26003;-87
2020/12/10 00:05:33;;;;;;;109.75;48.90;;;;;;;-0.44;73.39;96573.33;1794290;78;25832;-87
2020/12/10 00:08:00;;;;;;;106.63;46.18;;;;;;;-0.39;73.46;96564.90;1770695;78;26609;-87
2020/12/10 00:10:27;;;;;;;101.33;44.77;;;;;;;-0.31;73.43;96569.38;1786739;78;25748;-87
2020/12/10 00:12:56;;;;;;;104.70;45.90;;;;;;;-0.26;73.41;96563.09;1795628;78;27471;-86
2020/12/10 00:15:24;;;;;;;103.42;46.25;;;;;;;-0.22;73.33;96557.27;1793399;78;26497;-87
2020/12/10 00:17:51;;;;;;;98.37;42.10;;;;;;;-0.21;73.30;96554.13;1802779;78;25320;-87
2020/12/10 00:20:18;;;;;;;109.70;46.75;;;;;;;-0.23;73.20;96554.28;1793248;78;25774;-86
2020/12/10 00:22:46;;;;;;;104.72;43.98;;;;;;;-0.30;73.30;96551.97;1772098;78;25918;-87
2020/12/10 00:25:13;;;;;;;100.62;43.15;;;;;;;-0.30;73.35;96553.80;1767461;78;28484;-87
2020/12/10 00:27:40;;;;;;;113.05;46.20;;;;;;;-0.34;73.26;96565.72;1781506;78;26161;-87
2020/12/10 00:30:09;;;;;;;104.05;45.43;;;;;;;-0.42;73.24;96559.92;1779743;78;25791;-87
2020/12/10 00:32:38;;;;;;;105.17;46.15;;;;;;;-0.46;73.24;96562.05;1767436;78;26960;-87
2020/12/10 00:35:08;;;;;;;103.67;45.52;;;;;;;-0.51;73.36;96559.08;1790055;78;25806;-87
2020/12/10 00:37:37;;;;;;;93.82;43.40;;;;;;;-0.50;73.44;96555.44;1799341;78;27561;-87
2020/12/10 00:40:07;;;;;;;104.12;44.63;;;;;;;-0.49;73.51;96553.63;1782093;78;25806;-86
2020/12/10 00:42:35;;;;;;;100.50;42.45;;;;;;;-0.46;73.55;96552.78;1767392;78;25766;-87
2020/12/10 00:45:04;;;;;;;103.53;44.40;;;;;;;-0.44;73.56;96553.45;1767445;78;26662;-87
2020/12/10 00:47:32;;;;;;;101.72;43.78;;;;;;;-0.41;73.61;96557.59;1767417;78;25778;-87
2020/12/10 00:49:59;;;;;;;95.80;41.90;;;;;;;-0.43;73.48;96553.78;1784797;78;28403;-87
2020/12/10 00:52:27;;;;;;;98.82;44.93;;;;;;;-0.43;73.48;96551.13;1793558;78;26040;-87
2020/12/10 00:54:54;;;;;;;95.42;42.15;;;;;;;-0.46;73.48;96542.17;1772078;78;25696;-87
2020/12/10 00:57:21;;;;;;;101.38;43.75;;;;;;;-0.46;73.50;96542.66;1767378;78;25733;-87
2020/12/10 00:59:49;;;;;;;94.42;42.73;;;;;;;-0.49;73.52;96545.67;1780180;78;26175;-87
2020/12/10 01:02:16;;;;;;;94.45;40.43;;;;;;;-0.49;73.64;96543.02;1795445;78;27546;-88
2020/12/10 01:04:43;;;;;;;93.72;40.80;;;;;;;-0.50;73.57;96537.38;1775068;78;25799;-87
2020/12/10 01:07:11;;;;;;;102.32;43.08;;;;;;;-0.52;73.51;96532.73;1784554;78;26036;-87
2020/12/10 01:09:38;;;;;;;96.40;42.43;;;;;;;-0.53;73.50;96531.91;1776575;78;25893;-88
2020/12/10 01:12:06;;;;;;;96.85;41.98;;;;;;;-0.56;73.49;96534.88;1783126;78;25696;-87
2020/12/10 01:14:33;;;;;;;94.15;38.80;;;;;;;-0.56;73.61;96536.20;1777984;78;27513;-88
2020/12/10 01:17:03;;;;;;;89.30;40.48;;;;;;;-0.56;73.60;96534.88;1780555;78;26588;-89
2020/12/10 01:19:30;;;;;;;94.07;42.23;;;;;;;-0.57;73.47;96530.56;1779271;78;25698;-89
2020/12/10 01:21:57;;;;;;;93.00;41.75;;;;;;;-0.56;73.53;96521.62;1780882;78;26379;-87
2020/12/10 01:24:25;;;;;;;90.92;41.75;;;;;;;-0.54;73.61;96507.70;1770570;78;26254;-88
2020/12/10 01:26:52;;;;;;;93.50;41.45;;;;;;;-0.50;73.69;96502.91;1793904;78;27539;-88
2020/12/10 01:29:20;;;;;;;93.37;40.73;;;;;;;-0.57;73.42;96504.05;1795585;78;25814;-89
2020/12/10 01:31:51;;;;;;;99.35;43.10;;;;;;;-0.68;73.44;96504.38;1794821;78;25784;-88
2020/12/10 01:34:22;;;;;;;90.10;39.48;;;;;;;-0.66;73.59;96498.42;1786396;78;26584;-89
2020/12/10 01:36:49;;;;;;;87.17;39.92;;;;;;;-0.61;73.68;96495.28;1797876;78;25738;-87
2020/12/10 01:39:16;;;;;;;91.30;39.53;;;;;;;-0.60;73.71;96499.07;1791259;78;27501;-88
2020/12/10 01:41:44;;;;;;;90.53;38.30;;;;;;;-0.66;73.53;96498.42;1768483;78;25815;-89
2020/12/10 01:44:14;;;;;;;83.62;38.45;;;;;;;-0.69;73.56;96488.14;1784585;78;25775;-90
2020/12/10 01:46:43;;;;;;;83.55;38.23;;;;;;;-0.70;73.52;96483.83;1771464;78;25722;-88
2020/12/10 01:49:11;;;;;;;88.97;40.48;;;;;;;-0.69;73.56;96489.46;1776789;78;25280;-87
2020/12/10 01:51:39;;;;;;;94.03;41.37;;;;;;;-0.68;73.68;96483.17;1795569;78;28483;-88
2020/12/10 01:54:08;;;;;;;85.30;39.73;;;;;;;-0.66;73.66;96487.81;1791831;78;26051;-89
2020/12/10 01:56:35;;;;;;;90.85;38.13;;;;;;;-0.64;73.64;96479.20;1789774;78;25796;-88
2020/12/10 01:59:05;;;;;;;89.28;40.67;;;;;;;-0.57;73.64;96482.02;1791142;78;25732;-89
2020/12/10 02:01:34;;;;;;;94.87;39.35;;;;;;;-0.61;73.41;96480.70;1777600;79;25384;-88
2020/12/10 02:04:01;;;;;;;91.40;40.70;;;;;;;-0.66;73.55;96476.38;1767563;78;27490;-90
2020/12/10 02:06:29;;;;;;;85.87;38.40;;;;;;;-0.60;73.62;96483.16;1779192;78;25867;-89
2020/12/10 02:08:56;;;;;;;87.05;39.80;;;;;;;-0.54;73.55;96482.52;1795562;78;25682;-87
2020/12/10 02:11:24;;;;;;;79.17;37.78;;;;;;;-0.63;73.38;96481.36;1793402;78;25654;-89
2020/12/10 02:13:51;;;;;;;84.95;37.65;;;;;;;-0.69;73.43;96481.51;1786975;78;25875;-87
2020/12/10 02:16:19;;;;;;;80.72;35.20;;;;;;;-0.74;73.40;96456.02;1769659;78;27515;-88
2020/12/10 02:18:50;;;;;;;74.40;34.33;;;;;;;-0.72;73.45;96472.55;1770734;78;25750;-89
2020/12/10 02:21:17;;;;;;;74.62;34.90;;;;;;;-0.78;73.48;96474.05;1774507;78;25819;-90
2020/12/10 02:23:45;;;;;;;72.40;32.98;;;;;;;-0.78;73.47;96481.17;1779775;78;25770;-89
2020/12/10 02:26:12;;;;;;;76.22;33.73;;;;;;;-0.74;73.53;96473.23;1767566;78;25871;-88
2020/12/10 02:28:39;;;;;;;74.50;32.67;;;;;;;-0.71;73.60;96466.27;1785997;78;27494;-89
2020/12/10 02:31:07;;;;;;;76.50;36.80;;;;;;;-0.70;73.63;96465.27;1775456;78;26610;-88
2020/12/10 02:33:34;;;;;;;85.00;36.93;;;;;;;-0.71;73.62;96455.66;1767658;78;25860;-88
2020/12/10 02:36:01;;;;;;;92.35;39.53;;;;;;;-0.67;73.55;96445.08;1767570;78;25815;-88
2020/12/10 02:38:29;;;;;;;84.75;37.20;;;;;;;-0.66;73.58;96449.38;1785580;78;25877;-89
2020/12/10 02:40:57;;;;;;;91.12;39.48;;;;;;;-0.67;73.51;96442.92;1780760;78;28948;-88
2020/12/10 02:43:24;;;;;;;90.30;39.23;;;;;;;-0.68;73.61;96440.77;1776529;78;25329;-87
2020/12/10 02:45:51;;;;;;;89.10;39.18;;;;;;;-0.73;73.51;96439.13;1786490;78;25967;-88
2020/12/10 02:48:19;;;;;;;77.80;35.23;;;;;;;-0.74;73.62;96430.84;1774174;78;26287;-87
2020/12/10 02:50:46;;;;;;;69.67;31.82;;;;;;;-0.77;73.59;96430.66;1771845;78;25913;-88
2020/12/10 02:53:13;;;;;;;63.75;29.65;;;;;;;-0.78;73.46;96430.83;1776136;78;27491;-89
2020/12/10 02:55:41;;;;;;;61.15;29.27;;;;;;;-0.79;73.38;96429.17;1767328;78;26329;-88
2020/12/10 02:58:08;;;;;;;61.40;30.40;;;;;;;-0.77;73.46;96421.89;1767514;78;25851;-89
2020/12/10 03:00:35;;;;;;;66.45;29.52;;;;;;;-0.79;73.32;96423.87;1769802;78;25785;-87
2020/12/10 03:03:02;;;;;;;60.58;27.85;;;;;;;-0.82;73.24;96419.72;1787085;78;25576;-90
2020/12/10 03:05:30;;;;;;;63.75;29.57;;;;;;;-0.84;73.24;96419.05;1767500;78;28508;-88
2020/12/10 03:07:57;;;;;;;68.72;31.30;;;;;;;-0.86;73.29;96405.16;1767491;78;25748;-88
2020/12/10 03:10:24;;;;;;;71.92;32.73;;;;;;;-0.85;73.31;96396.72;1767630;79;25684;-88
2020/12/10 03:12:51;;;;;;;68.42;31.15;;;;;;;-0.81;73.51;96396.70;1780688;78;26463;-88
2020/12/10 03:15:19;;;;;;;65.17;30.35;;;;;;;-0.76;73.44;96388.60;1767057;79;25407;-89
2020/12/10 03:17:46;;;;;;;68.55;31.15;;;;;;;-0.70;73.26;96397.70;1772110;78;27503;-88
2020/12/10 03:20:13;;;;;;;65.70;29.95;;;;;;;-0.77;73.16;96394.06;1793150;78;26153;-88
2020/12/10 03:22:41;;;;;;;60.88;29.65;;;;;;;-0.78;73.24;96398.53;1771566;78;26296;-88
2020/12/10 03:25:08;;;;;;;70.12;32.03;;;;;;;-0.81;73.16;96390.91;1767356;78;25767;-88
2020/12/10 03:27:35;;;;;;;67.37;31.60;;;;;;;-0.76;73.17;96387.77;1779770;78;25812;-88
2020/12/10 03:30:04;;;;;;;70.42;31.15;;;;;;;-0.81;73.04;96382.95;1773024;78;28407;-88
2020/12/10 03:32:32;;;;;;;64.80;31.52;;;;;;;-0.83;73.13;96394.22;1786392;78;25926;-89
2020/12/10 03:35:01;;;;;;;68.47;30.00;;;;;;;-0.86;73.15;96388.44;1775534;78;25813;-87
2020/12/10 03:37:30;;;;;;;66.10;30.75;;;;;;;-1.01;72.95;96389.58;1792517;78;25949;-88
2020/12/10 03:39:58;;;;;;;67.80;31.80;;;;;;;-1.02;73.13;96383.13;1770383;78;25894;-88
2020/12/10 03:42:25;;;;;;;63.38;28.98;;;;;;;-1.01;73.23;96377.66;1767387;78;27498;-88
2020/12/10 03:44:52;;;;;;;63.95;29.27;;;;;;;-0.96;73.27;96383.77;1767208;78;26207;-89
2020/12/10 03:47:20;;;;;;;70.28;31.55;;;;;;;-0.97;73.13;96376.84;1774442;78;25856;-90
2020/12/10 03:49:47;;;;;;;59.35;28.27;;;;;;;-0.93;73.16;96383.45;1786340;78;25726;-88
2020/12/10 03:52:14;;;;;;;61.15;29.10;;;;;;;-0.87;73.12;96380.16;1773041;78;25389;-88
2020/12/10 03:54:41;;;;;;;67.75;29.65;;;;;;;-0.86;73.03;96376.02;1786455;78;28460;-90
2020/12/10 03:57:09;;;;;;;64.27;30.10;;;;;;;-0.85;73.10;96371.55;1791334;78;25802;-88
2020/12/10 03:59:37;;;;;;;57.10;27.25;;;;;;;-0.89;73.13;96372.37;1767409;78;25392;-89
2020/12/10 04:02:04;;;;;;;55.83;28.55;;;;;;;-0.95;73.08;96368.21;1767415;78;25760;-87
2020/12/10 04:04:31;;;;;;;60.28;28.45;;;;;;;-1.02;72.95;96361.94;1775791;78;25826;-87
2020/12/10 04:06:58;;;;;;;55.30;26.82;;;;;;;-1.12;73.02;96366.07;1772057;78;27563;-88
2020/12/10 04:09:26;;;;;;;60.17;28.52;;;;;;;-1.10;73.22;96356.98;1774198;78;26394;-88
2020/12/10 04:11:53;;;;;;;60.48;30.30;;;;;;;-1.12;73.24;96354.16;1795004;78;25736;-87
2020/12/10 04:14:20;;;;;;;61.37;30.48;;;;;;;-1.12;73.32;96352.34;1767903;78;25795;-88
2020/12/10 04:16:47;;;;;;;58.98;28.35;;;;;;;-1.11;73.35;96351.84;1786578;78;25810;-88
2020/12/10 04:19:15;;;;;;;120.42;39.63;;;;;;;-1.01;73.42;96354.32;1774233;78;27599;-88
2020/12/10 04:21:42;;;;;;;90.60;35.40;;;;;;;-0.99;73.29;96348.37;1776423;78;25739;-87
2020/12/10 04:24:09;;;;;;;89.97;32.90;;;;;;;-0.94;73.27;96348.67;1767273;78;26454;-89
2020/12/10 04:26:36;;;;;;;82.30;31.23;;;;;;;-1.01;73.18;96349.02;1785276;78;26457;-88
2020/12/10 04:29:04;;;;;;;164.95;44.45;;;;;;;-1.09;73.12;96344.56;1775857;78;26402;-88
2020/12/10 04:31:31;;;;;;;142.50;42.30;;;;;;;-1.06;73.22;96354.80;1770359;78;27576;-88
2020/12/10 04:33:59;;;;;;;133.00;42.48;;;;;;;-1.00;73.21;96341.41;1786266;78;25774;-89
2020/12/10 04:36:27;;;;;;;91.17;32.73;;;;;;;-0.96;73.22;96348.02;1786304;78;25698;-90
2020/12/10 04:38:54;;;;;;;66.90;28.98;;;;;;;-1.12;72.93;96340.42;1778940;78;25762;-88
2020/12/10 04:41:22;;;;;;;59.58;26.57;;;;;;;-1.13;73.11;96335.28;1780689;78;25850;-89
2020/12/10 04:43:49;;;;;;;60.38;28.50;;;;;;;-1.05;73.18;96335.77;1773450;78;27520;-92
2020/12/10 04:46:19;;;;;;;59.48;27.00;;;;;;;-0.97;73.22;96336.62;1794458;78;25811;-88
2020/12/10 04:48:48;;;;;;;60.28;28.35;;;;;;;-0.89;73.28;96337.10;1768758;78;26289;-89
2020/12/10 04:51:16;;;;;;;62.00;29.00;;;;;;;-0.84;73.19;96333.44;1767421;78;25770;-89
2020/12/10 04:53:44;;;;;;;63.50;29.02;;;;;;;-0.89;73.06;96336.61;1767343;78;25805;-88
2020/12/10 04:56:11;;;;;;;75.50;34.33;;;;;;;-1.07;72.83;96328.48;1767163;78;27545;-87
2020/12/10 04:58:39;;;;;;;69.95;32.23;;;;;;;-1.28;72.92;96337.75;1791693;78;25778;-90
2020/12/10 05:01:06;;;;;;;59.27;29.50;;;;;;;-1.33;73.19;96337.43;1785540;78;25871;-91
2020/12/10 05:03:33;;;;;;;56.53;27.25;;;;;;;-1.30;73.43;96338.41;1767549;78;25782;-90
2020/12/10 05:06:12;;;;;;;57.78;28.65;;;;;;;-1.25;73.47;96331.30;1783093;78;25846;-88
2020/12/10 05:08:40;;;;;;;65.75;28.67;;;;;;;-1.22;73.56;96328.33;1777135;78;27504;-87
2020/12/10 05:11:09;;;;;;;73.83;30.72;;;;;;;-1.21;73.43;96326.81;1794883;78;25747;-87
2020/12/10 05:13:38;;;;;;;74.85;31.77;;;;;;;-1.23;73.47;96320.88;1776679;78;25782;-87
2020/12/10 05:16:21;;;;;;;88.97;36.65;;;;;;;-1.15;73.53;96322.70;1791387;78;25814;-88
2020/12/10 05:18:49;;;;;;;69.77;31.75;;;;;;;-1.14;73.51;96320.38;1793883;78;25818;-88
2020/12/10 05:21:16;;;;;;;64.92;30.35;;;;;;;-1.06;73.43;96324.84;1772221;78;28496;-88
2020/12/10 05:23:43;;;;;;;81.17;38.85;;;;;;;-1.09;73.27;96324.17;1774617;78;26123;-89
2020/12/10 05:26:11;;;;;;;75.80;37.05;;;;;;;-1.15;73.29;96323.52;1747083;81;26328;-89
2020/12/10 05:28:44;;;;;;;62.90;30.00;;;;;;;-1.07;73.40;96320.53;1739713;81;26384;-87
2020/12/10 05:31:18;;;;;;;63.15;30.10;;;;;;;-1.00;73.36;96329.49;1726803;81;25805;-87
2020/12/10 05:33:57;;;;;;;69.22;31.80;;;;;;;-0.97;73.24;96327.34;1752617;81;28357;-87
2020/12/10 05:36:28;;;;;;;74.42;33.20;;;;;;;-1.10;73.13;96342.41;1733586;81;26046;-87
2020/12/10 05:39:08;;;;;;;77.82;34.63;;;;;;;-1.09;73.18;96330.80;1752049;80;25920;-88
2020/12/10 05:41:38;;;;;;;82.70;36.55;;;;;;;-1.09;73.27;96324.17;1757623;80;25736;-87
2020/12/10 05:44:20;;;;;;;72.42;35.50;;;;;;;-1.04;73.29;96324.19;1756638;80;25783;-89
2020/12/10 05:46:51;;;;;;;71.13;33.13;;;;;;;-0.98;73.30;96327.51;1757085;80;26116;-90
2020/12/10 05:49:19;;;;;;;67.05;33.25;;;;;;;-1.04;73.11;96322.86;1755205;80;26122;-89
2020/12/10 05:51:49;;;;;;;68.65;31.77;;;;;;;-1.14;73.21;96317.73;1755171;80;25675;-88
2020/12/10 05:54:19;;;;;;;63.08;29.60;;;;;;;-1.15;73.38;96309.45;1755112;80;25811;-90
2020/12/10 05:56:59;;;;;;;61.55;29.00;;;;;;;-1.08;73.47;96311.76;1754993;80;25852;-87
2020/12/10 05:59:31;;;;;;;65.80;29.80;;;;;;;-1.08;73.35;96306.46;1755075;80;27561;-89
2020/12/10 06:02:04;;;;;;;;;;;;;;;-1.12;73.43;96306.48;1736201;81;25774;-89
2020/12/10 06:04:33;;;;;;;85.97;35.68;;;;;;;-1.19;73.39;96304.98;1733343;81;25371;-88
2020/12/10 06:07:02;;;;;;;75.72;34.95;;;;;;;-1.32;73.50;96300.66;1733564;81;25842;-88
2020/12/10 06:09:29;;;;;;;75.97;33.73;;;;;;;-1.39;73.63;96302.33;1733591;81;25759;-90
2020/12/10 06:12:04;;;;;;;75.87;33.40;;;;;;;-1.34;73.86;96301.36;1733581;81;27578;-88
2020/12/10 06:14:32;;;;;;;79.72;37.48;;;;;;;-1.26;73.97;96300.02;1733388;81;26364;-87
2020/12/10 06:17:10;;;;;;;72.78;31.73;;;;;;;-1.15;74.05;96299.69;1754126;81;25718;-89
2020/12/10 06:19:39;;;;;;;63.10;31.20;;;;;;;-1.18;73.83;96296.05;1733621;81;25812;-91
2020/12/10 06:22:30;;;;;;;68.85;32.30;;;;;;;-1.17;73.99;96299.02;1733638;81;25894;-87
2020/12/10 06:24:59;;;;;;;74.05;33.45;;;;;;;-1.11;73.98;96294.90;1763888;78;27495;-88
2020/12/10 06:27:36;;;;;;;80.07;37.60;;;;;;;-1.08;73.98;96294.55;1785091;78;25732;-88
2020/12/10 06:30:22;;;;;;;77.82;33.88;;;;;;;-1.03;74.03;96292.73;1785280;78;25861;-88
2020/12/10 06:32:53;;;;;;;73.45;33.40;;;;;;;-1.04;74.00;96293.72;1785129;78;25715;-92
2020/12/10 06:35:34;;;;;;;71.87;33.48;;;;;;;-0.99;73.96;96288.77;1785288;78;25790;-88
2020/12/10 06:38:04;;;;;;;68.55;32.20;;;;;;;-0.95;73.97;96288.74;1805421;78;27500;-89
2020/12/10 06:40:38;;;;;;;73.42;36.17;;;;;;;-0.86;74.05;96275.84;1799648;77;25676;-91
2020/12/10 06:43:08;;;;;;;65.67;33.90;;;;;;;-0.81;74.07;96278.80;1817587;77;25328;-89
2020/12/10 06:45:41;;;;;;;74.20;33.18;;;;;;;-0.80;74.01;96281.78;1791417;78;26594;-88
2020/12/10 06:48:21;;;;;;;72.42;34.03;;;;;;;-0.81;73.99;96277.47;1820796;77;26065;-88
2020/12/10 06:50:48;;;;;;;75.12;36.08;;;;;;;-0.77;74.00;96278.80;1817581;77;27877;-87
2020/12/10 06:53:21;;;;;;;67.15;32.85;;;;;;;-0.70;74.07;96283.73;1801988;77;26478;-87
2020/12/10 06:55:59;;;;;;;69.77;31.97;;;;;;;-0.68;73.93;96281.75;1817655;77;25801;-87
2020/12/10 06:58:42;;;;;;;73.90;35.23;;;;;;;-0.71;73.95;96278.11;1814073;77;25964;-87
2020/12/10 07:01:29;;;;;;;72.15;34.78;;;;;;;-0.63;73.97;96279.44;1828321;77;25868;-87
2020/12/10 07:04:31;;;;;;;72.27;37.88;;;;;;;-0.67;73.75;96276.78;1814146;77;27499;-87
2020/12/10 07:07:25;;;;;;;74.60;36.35;;;;;;;-0.71;73.88;96268.83;1777570;79;25671;-87
2020/12/10 07:10:01;;;;;;;73.15;38.45;;;;;;;-0.68;73.88;96268.50;1817732;78;26327;-87
2020/12/10 07:12:40;;;;;;;66.02;30.52;;;;;;;-0.63;73.93;96263.53;1817996;77;25704;-86
2020/12/10 07:15:23;;;;;;;61.20;28.32;;;;;;;-0.57;73.87;96269.47;1762298;79;26144;-86
2020/12/10 07:17:51;;;;;;;56.98;26.05;;;;;;;-0.61;73.69;96269.50;1795447;77;28473;-87
2020/12/10 07:20:19;;;;;;;59.15;27.50;;;;;;;-0.79;73.57;96266.21;1795313;78;26801;-86
2020/12/10 07:22:47;;;;;;;55.30;28.52;;;;;;;-0.87;73.74;96261.77;1814870;77;26578;-85
2020/12/10 07:25:16;;;;;;;62.93;30.43;;;;;;;-0.81;73.98;96265.55;1774015;80;25906;-86
2020/12/10 07:27:45;;;;;;;67.65;29.02;;;;;;;-0.79;73.99;96264.39;1802126;77;26103;-86
2020/12/10 07:30:17;;;;;;;57.15;28.07;;;;;;;-0.79;74.02;96263.56;1792516;78;27472;-87
2020/12/10 07:32:46;;;;;;;58.40;25.43;;;;;;;-0.69;74.08;96262.88;1801640;78;26564;-86
2020/12/10 07:35:14;;;;;;;58.02;26.25;;;;;;;-0.68;73.91;96255.25;1815297;77;25880;-87
2020/12/10 07:37:41;;;;;;;59.88;28.00;;;;;;;-0.82;73.80;96255.94;1778270;80;25738;-87
2020/12/10 07:40:15;;;;;;;57.25;28.47;;;;;;;-0.85;73.99;96254.48;1820911;78;25756;-86
2020/12/10 07:42:43;;;;;;;62.08;30.50;;;;;;;-0.77;74.11;96256.28;1789685;77;28485;-87
2020/12/10 07:45:18;;;;;;;55.38;28.60;;;;;;;-0.71;74.14;96255.58;1798074;78;25845;-87
2020/12/10 07:47:56;;;;;;;50.48;23.92;;;;;;;-0.72;74.11;96249.45;1801897;78;26314;-85
2020/12/10 07:50:26;;;;;;;53.23;25.85;;;;;;;-0.81;74.01;96247.83;1800716;78;26579;-87
2020/12/10 07:52:55;;;;;;;71.50;33.78;;;;;;;-0.96;73.98;96248.67;1803628;77;26185;-86
2020/12/10 07:55:28;;;;;;;159.65;72.72;;;;;;;-1.06;74.17;96244.06;1792531;78;28485;-86
2020/12/10 07:58:13;;;;;;;113.90;57.67;;;;;;;-1.05;74.51;96241.75;1811045;77;25655;-91
2020/12/10 08:00:43;;;;;;;76.55;36.42;;;;;;;-0.95;74.72;96239.73;1806700;78;25863;-87
2020/12/10 08:03:27;;;;;;;62.15;30.20;;;;;;;-0.86;74.66;96241.40;1818861;78;25846;-86
2020/12/10 08:06:10;;;;;;;53.73;26.52;;;;;;;-0.83;74.69;96231.27;1808772;78;25839;-87
2020/12/10 08:08:42;;;;;;;46.60;23.70;;;;;;;-0.74;74.76;96226.80;1815023;77;27497;-88
2020/12/10 08:11:20;;;;;;;53.92;27.95;;;;;;;-0.64;74.77;96226.59;1810385;77;26414;-86
2020/12/10 08:14:03;;;;;;;62.25;29.42;;;;;;;-0.54;74.76;96225.89;1799938;78;25839;-87
2020/12/10 08:16:45;;;;;;;62.00;30.00;;;;;;;-0.47;74.65;96221.05;1790294;77;25834;-87
2020/12/10 08:19:19;;;;;;;64.75;30.85;;;;;;;-0.32;74.68;96222.48;1821581;78;26447;-88
2020/12/10 08:21:49;;;;;;;43.20;22.93;;;;;;;-0.19;74.63;96217.95;1775859;78;27293;-86
2020/12/10 08:24:44;;;;;;;43.38;21.57;;;;;;;-0.12;74.40;96216.27;1801401;78;25751;-87
2020/12/10 08:27:16;;;;;;;47.17;22.27;;;;;;;-0.12;74.30;96210.44;1792691;78;25835;-86
2020/12/10 08:30:02;;;;;;;42.75;21.77;;;;;;;-0.02;74.16;96216.88;1772935;78;26499;-88
2020/12/10 08:32:30;;;;;;;41.63;20.10;;;;;;;0.00;74.08;96215.67;1795078;79;25870;-87
2020/12/10 08:35:07;;;;;;;40.95;21.55;;;;;;;0.03;73.92;96211.03;1767726;78;27508;-88
2020/12/10 08:37:41;;;;;;;43.40;22.22;;;;;;;0.02;73.81;96210.20;1779969;78;26504;-87
2020/12/10 08:40:10;;;;;;;55.10;24.45;;;;;;;0.08;73.87;96204.20;1793840;78;25708;-87
2020/12/10 08:42:39;;;;;;;63.23;29.52;;;;;;;0.20;73.85;96200.65;1790210;78;25865;-87
2020/12/10 08:45:06;;;;;;;127.20;56.95;;;;;;;0.18;73.75;96203.97;1799233;78;25773;-87
2020/12/10 08:47:34;;;;;;;95.72;42.13;;;;;;;0.26;73.81;96204.73;1787042;78;28374;-87
2020/12/10 08:50:26;;;;;;;81.32;36.50;;;;;;;0.29;73.62;96199.08;1775668;78;25840;-88
2020/12/10 08:53:05;;;;;;;52.20;25.25;;;;;;;0.35;73.62;96201.05;1767283;79;25784;-88
2020/12/10 08:55:44;;;;;;;59.88;27.85;;;;;;;0.35;73.47;96197.56;1790175;78;25809;-88
2020/12/10 08:58:29;;;;;;;52.50;26.05;;;;;;;0.34;73.30;96198.56;1778456;78;25825;-88
2020/12/10 09:00:59;;;;;;;53.23;26.70;;;;;;;0.23;73.07;96195.82;1767231;78;27076;-88
2020/12/10 09:03:27;;;;;;;52.73;25.50;;;;;;;0.15;73.13;96201.16;1776320;78;25924;-88
2020/12/10 09:05:55;;;;;;;48.38;24.52;;;;;;;0.22;73.31;96201.30;1770938;78;25830;-88
2020/12/10 09:08:23;;;;;;;59.90;29.52;;;;;;;0.27;73.25;96194.45;1774863;78;25898;-88
2020/12/10 09:10:50;;;;;;;73.83;33.42;;;;;;;0.33;73.19;96195.08;1785631;78;25814;-89
2020/12/10 09:13:18;;;;;;;61.50;29.32;;;;;;;0.39;73.19;96185.56;1767184;79;27504;-89
2020/12/10 09:15:45;;;;;;;72.42;34.20;;;;;;;0.35;73.09;96190.42;1767277;78;25774;-89
2020/12/10 09:18:13;;;;;;;85.38;40.75;;;;;;;0.29;73.06;96179.17;1785582;78;25775;-89
2020/12/10 09:20:41;;;;;;;61.30;31.02;;;;;;;0.30;73.16;96187.47;1775442;78;26524;-89
2020/12/10 09:23:12;;;;;;;44.70;22.75;;;;;;;0.28;73.07;96188.14;1788937;78;26276;-89
2020/12/10 09:25:40;;;;;;;40.17;19.42;;;;;;;0.30;73.07;96173.36;1767103;78;27406;-89
2020/12/10 09:28:09;;;;;;;39.67;20.45;;;;;;;0.25;72.95;96171.23;1772352;78;26752;-91
2020/12/10 09:30:40;;;;;;;42.90;22.15;;;;;;;0.28;73.03;96162.92;1798946;78;25866;-90
2020/12/10 09:33:09;;;;;;;51.23;22.83;;;;;;;0.35;73.12;96159.90;1759213;78;25869;-90
2020/12/10 09:35:38;;;;;;;118.85;48.38;;;;;;;0.40;73.01;96149.23;1769825;78;26068;-90
2020/12/10 09:38:08;;;;;;;163.82;71.92;;;;;;;0.42;72.92;96151.20;1774062;79;27568;-90
2020/12/10 09:40:35;;;;;;;98.95;47.48;;;;;;;0.36;72.83;96151.44;1788702;79;26332;-91
2020/12/10 09:43:03;;;;;;;53.05;26.97;;;;;;;0.31;72.83;96146.65;1774000;78;25807;-90
2020/12/10 09:45:32;;;;;;;46.58;23.57;;;;;;;0.24;72.81;96148.88;1767343;78;26372;-90
2020/12/10 09:48:01;;;;;;;42.55;21.57;;;;;;;0.24;72.84;96148.88;1781598;78;25893;-90
2020/12/10 09:50:31;;;;;;;44.77;21.87;;;;;;;0.26;72.89;96142.86;1777112;78;27731;-90
2020/12/10 09:53:13;;;;;;;40.20;21.35;;;;;;;0.29;72.91;96143.34;1785855;78;25906;-89
2020/12/10 09:58:46;;;;;;;42.45;21.55;;;;;;;0.28;72.81;96137.70;1783583;78;26455;-90
2020/12/10 10:01:27;;;;;;;42.67;21.48;;;;;;;0.31;72.85;96129.39;1767067;78;26453;-89
2020/12/10 10:03:55;;;;;;;46.60;22.15;;;;;;;0.35;72.86;96130.70;1773734;78;27549;-89
2020/12/10 10:06:29;;;;;;;42.78;20.92;;;;;;;0.40;72.95;96130.64;1773956;78;25914;-90
2020/12/10 10:08:59;;;;;;;39.25;21.75;;;;;;;0.45;72.88;96117.67;1773715;78;25791;-90
2020/12/10 10:11:30;;;;;;;43.68;22.27;;;;;;;0.45;72.68;96124.31;1774419;79;26377;-90
2020/12/10 10:14:06;;;;;;;44.33;23.45;;;;;;;0.44;72.69;96125.31;1773336;78;25961;-89
2020/12/10 10:16:48;;;;;;;41.92;23.00;;;;;;;0.38;72.58;96120.70;1787753;78;27429;-89
2020/12/10 10:19:20;;;;;;;47.05;24.27;;;;;;;0.30;72.61;96117.62;1781988;78;25862;-88
2020/12/10 10:21:56;;;;;;;47.03;25.12;;;;;;;0.32;72.68;96120.94;1765315;78;25814;-89
2020/12/10 10:24:29;;;;;;;48.60;25.00;;;;;;;0.36;72.74;96118.25;1767277;78;25991;-89
2020/12/10 10:27:00;;;;;;;39.00;18.98;;;;;;;0.44;72.78;96114.19;1759607;80;25732;-89
2020/12/10 10:29:28;;;;;;;45.63;24.65;;;;;;;0.49;72.72;96117.11;1758111;80;27700;-89
2020/12/10 10:31:56;;;;;;;48.08;25.68;;;;;;;0.50;72.59;96117.94;1757731;80;25778;-90
2020/12/10 10:34:31;;;;;;;65.50;32.50;;;;;;;0.45;72.53;96106.55;1758564;80;25938;-91
2020/12/10 10:37:07;;;;;;;79.22;40.45;;;;;;;0.38;72.49;96107.43;1780808;80;26080;-91
2020/12/10 10:39:35;;;;;;;56.00;28.90;;;;;;;0.22;72.53;96099.95;1774911;80;25975;-91
2020/12/10 10:42:08;;;;;;;70.52;36.93;;;;;;;0.22;72.66;96097.30;1773290;80;27510;-90
2020/12/10 10:44:37;;;;;;;71.77;37.42;;;;;;;0.17;72.76;96096.17;1783228;80;26343;-90
2020/12/10 10:47:05;;;;;;;63.73;32.03;;;;;;;0.22;72.94;96094.64;1772156;79;25766;-89
2020/12/10 10:49:38;;;;;;;44.30;24.60;;;;;;;0.25;73.01;96091.61;1757990;80;25814;-90
2020/12/10 10:52:06;;;;;;;47.48;25.70;;;;;;;0.25;72.90;96090.78;1778615;80;25888;-90
2020/12/10 10:54:35;;;;;;;44.70;23.98;;;;;;;0.29;73.00;96087.60;1758147;80;28515;-90
2020/12/10 10:57:05;;;;;;;40.35;22.32;;;;;;;0.26;72.89;96093.27;1772662;80;26116;-90
2020/12/10 10:59:37;;;;;;;42.90;22.65;;;;;;;0.16;72.72;96084.73;1770924;79;25953;-91
2020/12/10 11:02:05;;;;;;;45.25;23.98;;;;;;;0.09;72.91;96087.79;1757911;80;26418;-91
2020/12/10 11:04:33;;;;;;;48.02;24.30;;;;;;;0.12;73.12;96088.73;1764413;80;25844;-90
2020/12/10 11:07:01;;;;;;;90.03;39.73;;;;;;;0.09;73.11;96081.16;1765061;80;27510;-91
2020/12/10 11:09:30;;;;;;;102.50;48.08;;;;;;;0.19;73.26;96072.94;1762180;80;26319;-90
2020/12/10 11:11:59;;;;;;;92.53;44.77;;;;;;;0.24;73.20;96068.73;1763347;80;26005;-91
2020/12/10 11:14:27;;;;;;;65.35;35.45;;;;;;;0.31;73.16;96060.88;1737190;81;26886;-91
2020/12/10 11:16:58;;;;;;;47.98;27.27;;;;;;;0.41;73.12;96064.60;1758153;80;26046;-91
2020/12/10 11:19:29;;;;;;;47.00;26.53;;;;;;;0.43;72.90;96058.61;1758416;80;27434;-91
2020/12/10 11:22:04;;;;;;;49.80;28.15;;;;;;;0.47;73.01;96059.91;1778694;80;25814;-90
2020/12/10 11:24:33;;;;;;;48.75;27.77;;;;;;;0.54;73.01;96052.86;1758050;80;25818;-92
2020/12/10 11:27:02;;;;;;;56.50;29.55;;;;;;;0.65;72.92;96060.37;1757907;80;25815;-91
2020/12/10 11:29:32;;;;;;;52.27;28.73;;;;;;;0.69;72.79;96061.66;1758047;80;25875;-91
2020/12/10 11:32:02;;;;;;;55.63;28.67;;;;;;;0.64;72.76;96060.05;1758065;80;27566;-91
2020/12/10 11:34:30;;;;;;;52.80;29.12;;;;;;;0.67;72.87;96054.38;1757913;80;25839;-91
2020/12/10 11:37:00;;;;;;;57.15;29.80;;;;;;;0.63;72.75;96061.05;1757885;80;25816;-91